Time;durP1;ratioP1;P1;durP2;ratioP2;P2;SDS_P1;SDS_P2;PMS_P1;PMS_P2;Temp;Humidity;BMP_temperature;BMP_pressure;BME280_temperature;BME280_humidity;BME280_pressure;Samples;Min_cycle;Max_cycle;Signal;HPM_P1;HPM_P2
2022/12/16 00:00:26;;;;;;;35.00;16.20;;;0.60;99.90;;;;;;4929942;29;20509;-59
2022/12/16 00:02:52;;;;;;;36.20;16.20;;;0.60;99.90;;;;;;4931210;29;20441;-59
2022/12/16 00:05:18;;;;;;;33.27;14.30;;;0.60;99.90;;;;;;4927260;29;20454;-59
2022/12/16 00:07:45;;;;;;;29.93;14.97;;;0.60;99.90;;;;;;4925554;29;21126;-59
2022/12/16 00:10:11;;;;;;;36.03;16.50;;;0.60;99.90;;;;;;4934081;29;20463;-59
2022/12/16 00:12:37;;;;;;;30.77;16.13;;;0.60;99.90;;;;;;4928942;29;21074;-59
2022/12/16 00:15:03;;;;;;;27.10;14.63;;;0.60;99.90;;;;;;4931347;29;20755;-59
2022/12/16 00:17:29;;;;;;;35.27;16.33;;;0.60;99.90;;;;;;4932088;29;20253;-59
2022/12/16 00:19:54;;;;;;;31.90;15.37;;;0.50;99.90;;;;;;4931847;28;20439;-59
2022/12/16 00:22:20;;;;;;;37.70;15.77;;;0.60;99.90;;;;;;4935413;28;20198;-59
2022/12/16 00:24:45;;;;;;;31.37;16.93;;;0.60;99.90;;;;;;4928941;29;20597;-60
2022/12/16 00:27:11;;;;;;;28.80;15.57;;;0.60;99.90;;;;;;4928126;29;20213;-59
2022/12/16 00:29:36;;;;;;;30.03;14.40;;;0.60;99.90;;;;;;4929847;29;20177;-59
2022/12/16 00:32:02;;;;;;;30.20;14.90;;;0.50;99.90;;;;;;4931776;29;20226;-59
2022/12/16 00:34:28;;;;;;;35.80;16.50;;;0.50;99.90;;;;;;4919882;29;20196;-59
2022/12/16 00:36:53;;;;;;;31.50;15.97;;;0.50;99.90;;;;;;4929664;29;20177;-60
2022/12/16 00:39:19;;;;;;;29.23;15.33;;;0.50;99.90;;;;;;4930771;29;20868;-58
2022/12/16 00:41:46;;;;;;;32.03;14.77;;;0.50;99.90;;;;;;4932044;29;20199;-58
2022/12/16 00:44:12;;;;;;;32.03;15.37;;;0.50;99.90;;;;;;4931940;29;20174;-58
2022/12/16 00:46:38;;;;;;;30.10;14.77;;;0.50;99.90;;;;;;4932642;28;20538;-58
2022/12/16 00:49:04;;;;;;;29.40;14.83;;;0.50;99.90;;;;;;4951087;23;20253;-57
2022/12/16 00:51:30;;;;;;;32.57;15.70;;;0.40;99.90;;;;;;4925550;29;20429;-59
2022/12/16 00:53:55;;;;;;;30.10;14.77;;;0.40;99.90;;;;;;4928109;29;20815;-55
2022/12/16 00:56:21;;;;;;;32.40;15.50;;;0.40;99.90;;;;;;4927386;29;20612;-54
2022/12/16 00:58:46;;;;;;;33.47;14.63;;;0.40;99.90;;;;;;4925391;29;20218;-57
2022/12/16 01:01:12;;;;;;;34.10;15.13;;;0.40;99.90;;;;;;4920489;29;20189;-54
2022/12/16 01:03:38;;;;;;;34.37;16.70;;;0.40;99.90;;;;;;4935994;29;20266;-57
2022/12/16 01:06:15;;;;;;;36.67;16.60;;;0.40;99.90;;;;;;4952081;29;20218;-58
2022/12/16 01:08:47;;;;;;;28.70;14.67;;;0.40;99.90;;;;;;4948163;29;20258;-60
2022/12/16 01:11:17;;;;;;;35.00;15.47;;;0.40;99.90;;;;;;4951753;29;20493;-58
2022/12/16 01:13:43;;;;;;;33.03;15.73;;;0.40;99.90;;;;;;4932883;29;20460;-55
2022/12/16 01:16:09;;;;;;;34.83;16.93;;;0.30;99.90;;;;;;4927903;29;20442;-54
2022/12/16 01:18:35;;;;;;;34.83;16.80;;;0.30;99.90;;;;;;4926435;29;20492;-58
2022/12/16 01:21:03;;;;;;;31.90;15.90;;;0.30;99.90;;;;;;4930886;29;20186;-54
2022/12/16 01:23:28;;;;;;;33.70;15.70;;;0.30;99.90;;;;;;4929913;29;20793;-54
2022/12/16 01:25:58;;;;;;;30.20;14.90;;;0.30;99.90;;;;;;4927017;29;20441;-55
2022/12/16 01:28:24;;;;;;;34.30;15.73;;;0.30;99.90;;;;;;4924257;29;20707;-55
2022/12/16 01:30:56;;;;;;;44.13;19.43;;;0.20;99.90;;;;;;4926951;29;20529;-57
2022/12/16 01:33:22;;;;;;;39.13;17.57;;;0.20;99.90;;;;;;4927381;29;20529;-56
2022/12/16 01:35:48;;;;;;;38.60;17.57;;;0.20;99.90;;;;;;4926196;29;20440;-55
2022/12/16 01:38:14;;;;;;;39.20;16.30;;;0.20;99.90;;;;;;4928687;29;20469;-54
2022/12/16 01:40:40;;;;;;;37.67;17.00;;;0.20;99.90;;;;;;4924693;28;20395;-55
2022/12/16 01:43:13;;;;;;;42.07;18.17;;;0.20;99.90;;;;;;4931882;29;20445;-55
2022/12/16 01:45:38;;;;;;;45.93;19.53;;;0.10;99.90;;;;;;4928979;29;20193;-55
2022/12/16 01:48:26;;;;;;;40.57;18.20;;;0.10;99.90;;;;;;4931769;29;20418;-56
2022/12/16 01:50:57;;;;;;;41.27;19.00;;;0.00;99.90;;;;;;4928542;29;20196;-56
2022/12/16 01:53:23;;;;;;;41.97;17.87;;;0.10;99.90;;;;;;4933363;29;20445;-56
2022/12/16 01:55:51;;;;;;;45.17;19.33;;;0.10;99.90;;;;;;4940439;29;20456;-59
2022/12/16 01:58:31;;;;;;;37.07;17.47;;;0.10;99.90;;;;;;4948584;29;20657;-59
2022/12/16 02:00:57;;;;;;;42.97;19.50;;;0.00;99.90;;;;;;4950633;29;20429;-60
2022/12/16 02:03:23;;;;;;;38.80;16.70;;;0.00;99.90;;;;;;4948395;29;20510;-58
2022/12/16 02:05:49;;;;;;;41.53;18.40;;;0.00;99.90;;;;;;4948492;29;20460;-63
2022/12/16 02:08:17;;;;;;;38.70;16.87;;;0.00;99.90;;;;;;4931963;28;20813;-59
2022/12/16 02:10:42;;;;;;;38.17;16.90;;;0.00;99.90;;;;;;4929107;29;20472;-55
2022/12/16 02:13:25;;;;;;;38.40;17.10;;;0.00;99.90;;;;;;4926443;29;20449;-58
2022/12/16 02:15:59;;;;;;;35.80;16.40;;;-0.10;99.90;;;;;;4925944;29;20196;-55
2022/12/16 02:18:51;;;;;;;36.13;17.03;;;-0.10;99.90;;;;;;4927388;29;20506;-56
2022/12/16 02:21:29;;;;;;;37.17;16.00;;;-0.10;99.90;;;;;;4923553;29;20468;-56
2022/12/16 02:24:19;;;;;;;43.00;17.27;;;-0.10;99.90;;;;;;4925316;29;20446;-57
2022/12/16 02:27:09;;;;;;;45.47;17.80;;;-0.10;99.90;;;;;;4926418;29;20456;-56
2022/12/16 02:30:06;;;;;;;39.07;16.53;;;-0.10;99.90;;;;;;4924232;29;21016;-57
2022/12/16 02:32:50;;;;;;;36.87;16.67;;;-0.10;99.90;;;;;;4925904;29;20919;-55
2022/12/16 02:35:30;;;;;;;42.73;17.90;;;-0.10;99.90;;;;;;4940540;28;20433;-54
2022/12/16 02:38:14;;;;;;;49.20;20.43;;;0.00;99.90;;;;;;4926611;29;20473;-55
2022/12/16 02:40:47;;;;;;;50.97;21.90;;;-0.10;99.90;;;;;;4928276;28;20549;-56
2022/12/16 02:43:40;;;;;;;39.50;17.17;;;-0.10;99.90;;;;;;4922258;29;20447;-55
2022/12/16 02:46:08;;;;;;;37.40;16.27;;;-0.10;99.90;;;;;;4922752;29;20437;-57
2022/12/16 02:48:34;;;;;;;42.50;17.90;;;-0.10;99.90;;;;;;4926649;29;20502;-56
2022/12/16 02:51:00;;;;;;;37.90;17.60;;;-0.10;99.90;;;;;;4926638;29;20449;-55
2022/12/16 02:53:26;;;;;;;36.57;17.30;;;-0.10;99.90;;;;;;4924278;29;20199;-55
2022/12/16 02:56:11;;;;;;;40.43;17.10;;;0.00;99.90;;;;;;4925658;29;20200;-56
2022/12/16 02:58:57;;;;;;;42.40;17.87;;;0.00;99.90;;;;;;4925293;29;20476;-55
2022/12/16 03:02:04;;;;;;;37.03;15.57;;;0.00;99.90;;;;;;4925900;29;20527;-55
2022/12/16 03:05:07;;;;;;;38.40;16.87;;;-0.10;99.90;;;;;;4926127;29;20448;-56
2022/12/16 03:07:35;;;;;;;34.23;15.70;;;-0.10;99.90;;;;;;4917253;29;20445;-56
2022/12/16 03:10:05;;;;;;;39.63;17.20;;;-0.10;99.90;;;;;;4929734;29;21037;-55
2022/12/16 03:12:32;;;;;;;35.43;16.23;;;-0.10;99.90;;;;;;4927300;29;20448;-55
2022/12/16 03:14:58;;;;;;;38.13;16.60;;;-0.10;99.90;;;;;;4941339;28;20458;-57
2022/12/16 03:17:26;;;;;;;34.13;16.77;;;-0.10;99.90;;;;;;4924535;29;20456;-56
2022/12/16 03:20:10;;;;;;;37.27;16.57;;;-0.10;99.90;;;;;;4928856;29;20552;-56
2022/12/16 03:22:38;;;;;;;31.43;15.40;;;-0.20;99.90;;;;;;4922421;29;20504;-56
2022/12/16 03:25:06;;;;;;;35.73;16.40;;;-0.20;99.90;;;;;;4923559;29;20457;-55
2022/12/16 03:27:56;;;;;;;32.70;14.60;;;-0.20;99.90;;;;;;4923934;29;20458;-55
2022/12/16 03:30:27;;;;;;;31.13;14.53;;;-0.30;99.90;;;;;;4929305;29;21002;-56
2022/12/16 03:32:58;;;;;;;35.83;15.47;;;-0.30;99.90;;;;;;4929063;29;20447;-55
2022/12/16 03:35:36;;;;;;;37.60;16.17;;;-0.30;99.90;;;;;;4929159;29;20444;-57
2022/12/16 03:38:05;;;;;;;37.53;16.00;;;-0.30;99.90;;;;;;4923070;29;20577;-56
2022/12/16 03:40:32;;;;;;;44.60;16.97;;;-0.30;99.90;;;;;;4930371;29;20468;-53
2022/12/16 03:43:00;;;;;;;40.17;17.47;;;-0.30;99.90;;;;;;4929412;29;20452;-55
2022/12/16 03:45:30;;;;;;;34.53;15.27;;;-0.30;99.90;;;;;;4926886;29;20460;-56
2022/12/16 03:47:58;;;;;;;33.70;16.13;;;-0.30;99.90;;;;;;4927062;29;20460;-56
2022/12/16 03:50:32;;;;;;;37.90;17.67;;;-0.40;99.90;;;;;;4933139;29;20544;-56
2022/12/16 03:52:58;;;;;;;40.07;17.00;;;-0.40;99.90;;;;;;4950191;28;20516;-57
2022/12/16 03:55:25;;;;;;;36.97;17.00;;;-0.40;99.90;;;;;;4945807;28;20477;-56
2022/12/16 03:57:50;;;;;;;34.50;17.73;;;-0.40;99.90;;;;;;4945375;29;20474;-60
2022/12/16 04:00:16;;;;;;;38.77;16.70;;;-0.30;99.90;;;;;;4948712;29;20461;-59
2022/12/16 04:02:42;;;;;;;32.03;16.00;;;-0.40;99.90;;;;;;4933821;29;20696;-53
2022/12/16 04:05:09;;;;;;;35.90;16.80;;;-0.40;99.90;;;;;;4926845;29;20535;-55
2022/12/16 04:07:35;;;;;;;39.80;18.23;;;-0.40;99.90;;;;;;4929430;29;20456;-57
2022/12/16 04:10:00;;;;;;;45.00;19.20;;;-0.40;99.90;;;;;;4927729;29;21171;-55
2022/12/16 04:26:15;;;;;;;43.50;21.47;;;-0.60;99.90;;;;;;4936832;29;21481;-55
2022/12/16 04:28:41;;;;;;;47.17;20.13;;;-0.70;99.90;;;;;;4927388;29;20523;-54
2022/12/16 04:31:07;;;;;;;49.50;20.90;;;-0.70;99.90;;;;;;4923794;28;20531;-56
